Terminal Aerodrome Forecast
Issued by NWS Blacksburg, VA

Home | Current Version | Previous Version | Text Only | Print | Product List | Glossary On
Versions: 1 2 3 4 5 6 7 8 9 10 11 12 13 14 15 16 17 18 19 20 21 22 23 24 25 26
000
FTUS41 KRNK 290521
TAFDAN
TAF
KDAN 290521Z 2906/3006 21004KT P6SM BKN120
     FM290800 00000KT 3SM BR SCT003
      TEMPO 2908/2912 1SM BR BKN002
     FM291400 17004KT P6SM SCT025
     FM292000 18007KT P6SM SCT050
     FM300000 15003KT P6SM BKN120=

USA.gov is the U.S. government's official web portal to all federal, state and local government web resources and services.